sensor_id;sensor_type;location;lat;lon;timestamp;pressure;altitude;pressure_sealevel;temperature;humidity
58879;BME280;44660;42.664;23.266;2023-08-06T08:13:52;93433.53;;;25.89;48.12
58879;BME280;44660;42.664;23.266;2023-08-06T08:16:18;93427.91;;;26.01;47.37
58879;BME280;44660;42.664;23.266;2023-08-06T08:18:43;93425.44;;;26.19;45.80
58879;BME280;44660;42.664;23.266;2023-08-06T08:21:09;93423.03;;;26.45;46.07
58879;BME280;44660;42.664;23.266;2023-08-06T08:23:34;93420.50;;;26.59;45.57
58879;BME280;44660;42.664;23.266;2023-08-06T08:26:00;93413.41;;;26.54;44.09
58879;BME280;44660;42.664;23.266;2023-08-06T08:28:27;93431.56;;;26.73;44.79
58879;BME280;44660;42.664;23.266;2023-08-06T08:30:53;93424.69;;;26.83;44.75
58879;BME280;44660;42.664;23.266;2023-08-06T08:33:18;93415.88;;;26.97;44.43
58879;BME280;44660;42.664;23.266;2023-08-06T08:35:45;93415.72;;;27.24;43.50
58879;BME280;44660;42.664;23.266;2023-08-06T08:38:11;93393.94;;;27.28;42.77
58879;BME280;44660;42.664;23.266;2023-08-06T08:40:45;93411.75;;;27.59;41.51
58879;BME280;44660;42.664;23.266;2023-08-06T08:43:13;93412.25;;;27.79;41.22
58879;BME280;44660;42.664;23.266;2023-08-06T08:45:39;93417.03;;;27.93;41.04
58879;BME280;44660;42.664;23.266;2023-08-06T08:48:07;93399.09;;;27.92;41.35
58879;BME280;44660;42.664;23.266;2023-08-06T08:50:33;93397.69;;;28.20;41.10
58879;BME280;44660;42.664;23.266;2023-08-06T08:52:59;93388.41;;;28.32;41.75
58879;BME280;44660;42.664;23.266;2023-08-06T08:55:25;93393.94;;;28.50;40.88
58879;BME280;44660;42.664;23.266;2023-08-06T08:57:51;93401.00;;;28.65;39.80
58879;BME280;44660;42.664;23.266;2023-08-06T09:00:16;93402.25;;;28.79;39.62
58879;BME280;44660;42.664;23.266;2023-08-06T09:02:44;93395.63;;;28.87;38.95
58879;BME280;44660;42.664;23.266;2023-08-06T09:05:09;93369.84;;;28.84;38.90
58879;BME280;44660;42.664;23.266;2023-08-06T09:07:41;93380.84;;;29.13;38.88
58879;BME280;44660;42.664;23.266;2023-08-06T09:10:10;93376.56;;;29.23;38.08
58879;BME280;44660;42.664;23.266;2023-08-06T09:12:37;93387.13;;;29.43;39.17
58879;BME280;44660;42.664;23.266;2023-08-06T09:15:03;93387.91;;;29.47;38.65
58879;BME280;44660;42.664;23.266;2023-08-06T09:17:28;93394.16;;;29.44;38.89
58879;BME280;44660;42.664;23.266;2023-08-06T09:19:54;93377.69;;;29.00;38.07
58879;BME280;44660;42.664;23.266;2023-08-06T09:22:20;93378.47;;;28.90;38.71
58879;BME280;44660;42.664;23.266;2023-08-06T09:24:45;93377.69;;;28.93;39.88
58879;BME280;44660;42.664;23.266;2023-08-06T09:27:12;93358.13;;;28.95;39.62
58879;BME280;44660;42.664;23.266;2023-08-06T09:29:41;93374.53;;;28.95;39.37
58879;BME280;44660;42.664;23.266;2023-08-06T09:32:08;93365.19;;;29.03;39.21
58879;BME280;44660;42.664;23.266;2023-08-06T09:34:33;93343.69;;;28.94;38.97
58879;BME280;44660;42.664;23.266;2023-08-06T09:36:59;93372.28;;;29.29;38.69
58879;BME280;44660;42.664;23.266;2023-08-06T09:39:28;93373.84;;;29.41;38.57
58879;BME280;44660;42.664;23.266;2023-08-06T09:41:58;93361.34;;;29.47;38.30
58879;BME280;44660;42.664;23.266;2023-08-06T09:44:26;93360.94;;;29.53;37.80
58879;BME280;44660;42.664;23.266;2023-08-06T09:46:53;93366.00;;;29.58;38.64
58879;BME280;44660;42.664;23.266;2023-08-06T09:49:20;93371.50;;;29.61;37.74
58879;BME280;44660;42.664;23.266;2023-08-06T09:51:46;93349.97;;;29.42;37.67
58879;BME280;44660;42.664;23.266;2023-08-06T09:54:16;93355.84;;;29.44;38.63
58879;BME280;44660;42.664;23.266;2023-08-06T09:56:42;93368.34;;;29.59;38.62
58879;BME280;44660;42.664;23.266;2023-08-06T09:59:08;93376.16;;;29.68;38.49
58879;BME280;44660;42.664;23.266;2023-08-06T10:01:35;93370.69;;;29.64;36.80
58879;BME280;44660;42.664;23.266;2023-08-06T10:04:03;93371.47;;;29.47;36.74
58879;BME280;44660;42.664;23.266;2023-08-06T10:06:29;93385.94;;;29.33;36.99
58879;BME280;44660;42.664;23.266;2023-08-06T10:08:55;93377.72;;;29.08;37.17
58879;BME280;44660;42.664;23.266;2023-08-06T10:11:24;93371.03;;;28.80;37.41
58879;BME280;44660;42.664;23.266;2023-08-06T10:13:54;93368.25;;;28.73;37.42
58879;BME280;44660;42.664;23.266;2023-08-06T10:16:22;93366.63;;;28.57;38.00
58879;BME280;44660;42.664;23.266;2023-08-06T10:18:49;93379.91;;;28.59;38.25
58879;BME280;44660;42.664;23.266;2023-08-06T10:21:15;93384.97;;;28.49;38.42
58879;BME280;44660;42.664;23.266;2023-08-06T10:23:41;93379.47;;;28.46;38.78
58879;BME280;44660;42.664;23.266;2023-08-06T10:26:07;93386.16;;;28.56;39.33
58879;BME280;44660;42.664;23.266;2023-08-06T10:28:38;93383.78;;;28.54;38.91
58879;BME280;44660;42.664;23.266;2023-08-06T10:31:05;93337.66;;;28.31;39.31
58879;BME280;44660;42.664;23.266;2023-08-06T10:33:44;93393.97;;;28.64;38.74
58879;BME280;44660;42.664;23.266;2023-08-06T10:36:10;93384.19;;;28.56;36.56
58879;BME280;44660;42.664;23.266;2023-08-06T10:38:44;93376.31;;;28.40;37.35
58879;BME280;44660;42.664;23.266;2023-08-06T10:41:29;93381.31;;;28.20;37.21
58879;BME280;44660;42.664;23.266;2023-08-06T10:44:09;93407.00;;;28.08;37.61
58879;BME280;44660;42.664;23.266;2023-08-06T10:46:35;93408.84;;;27.90;37.99
58879;BME280;44660;42.664;23.266;2023-08-06T10:49:01;93404.81;;;27.73;38.24
58879;BME280;44660;42.664;23.266;2023-08-06T10:51:27;93420.75;;;27.63;39.75
58879;BME280;44660;42.664;23.266;2023-08-06T10:53:53;93405.81;;;27.50;39.21
58879;BME280;44660;42.664;23.266;2023-08-06T10:56:21;93415.16;;;27.49;39.53
58879;BME280;44660;42.664;23.266;2023-08-06T10:58:51;93415.03;;;27.34;40.22
58879;BME280;44660;42.664;23.266;2023-08-06T11:01:17;93387.97;;;27.15;40.10
58879;BME280;44660;42.664;23.266;2023-08-06T11:03:44;93426.75;;;27.38;40.23
58879;BME280;44660;42.664;23.266;2023-08-06T11:06:11;93429.09;;;27.36;41.00
58879;BME280;44660;42.664;23.266;2023-08-06T11:08:47;93416.59;;;27.35;41.36
58879;BME280;44660;42.664;23.266;2023-08-06T11:11:15;93440.84;;;27.41;41.50
58879;BME280;44660;42.664;23.266;2023-08-06T11:13:44;93410.25;;;27.24;40.89
58879;BME280;44660;42.664;23.266;2023-08-06T11:16:15;93433.94;;;27.13;41.44
58879;BME280;44660;42.664;23.266;2023-08-06T11:18:42;93407.50;;;26.79;44.11
58879;BME280;44660;42.664;23.266;2023-08-06T11:21:07;93455.09;;;26.89;47.83
58879;BME280;44660;42.664;23.266;2023-08-06T11:23:34;93448.72;;;26.74;48.46
58879;BME280;44660;42.664;23.266;2023-08-06T11:26:00;93409.34;;;26.37;50.00
58879;BME280;44660;42.664;23.266;2023-08-06T11:28:25;93429.66;;;26.44;47.76
58879;BME280;44660;42.664;23.266;2023-08-06T11:30:51;93450.78;;;26.54;46.75
58879;BME280;44660;42.664;23.266;2023-08-06T11:33:24;93444.00;;;26.40;47.57
58879;BME280;44660;42.664;23.266;2023-08-06T11:35:54;93433.34;;;26.28;49.82
58879;BME280;44660;42.664;23.266;2023-08-06T11:38:20;93450.59;;;26.39;51.45
58879;BME280;44660;42.664;23.266;2023-08-06T11:40:45;93421.19;;;26.22;51.81
58879;BME280;44660;42.664;23.266;2023-08-06T11:43:12;93437.31;;;26.34;52.06
58879;BME280;44660;42.664;23.266;2023-08-06T11:45:38;93430.28;;;26.33;52.45
58879;BME280;44660;42.664;23.266;2023-08-06T11:48:05;93397.91;;;26.24;54.56
58879;BME280;44660;42.664;23.266;2023-08-06T11:50:30;93413.94;;;26.33;54.36
58879;BME280;44660;42.664;23.266;2023-08-06T11:52:58;93421.47;;;26.44;53.94
58879;BME280;44660;42.664;23.266;2023-08-06T11:55:24;93433.84;;;26.37;53.52
58879;BME280;44660;42.664;23.266;2023-08-06T11:57:50;93422.16;;;26.37;53.01
58879;BME280;44660;42.664;23.266;2023-08-06T12:00:17;93424.88;;;26.37;52.80
58879;BME280;44660;42.664;23.266;2023-08-06T12:02:45;93406.13;;;26.32;51.28
58879;BME280;44660;42.664;23.266;2023-08-06T12:05:15;93420.41;;;26.52;48.87
58879;BME280;44660;42.664;23.266;2023-08-06T12:07:51;93418.09;;;26.54;49.71
58879;BME280;44660;42.664;23.266;2023-08-06T12:10:18;93406.88;;;26.59;48.04
58879;BME280;44660;42.664;23.266;2023-08-06T12:12:47;93382.69;;;26.54;50.12
58879;BME280;44660;42.664;23.266;2023-08-06T12:15:15;93417.50;;;26.71;47.49
58879;BME280;44660;42.664;23.266;2023-08-06T12:17:40;93383.88;;;26.56;47.16
58879;BME280;44660;42.664;23.266;2023-08-06T12:20:06;93367.44;;;26.49;48.25
58879;BME280;44660;42.664;23.266;2023-08-06T12:22:33;93401.25;;;26.79;46.35
58879;BME280;44660;42.664;23.266;2023-08-06T12:25:04;93409.91;;;26.84;47.21
58879;BME280;44660;42.664;23.266;2023-08-06T12:27:36;93395.81;;;26.79;46.01
58879;BME280;44660;42.664;23.266;2023-08-06T12:30:02;93411.09;;;26.87;45.56
58879;BME280;44660;42.664;23.266;2023-08-06T12:32:29;93403.88;;;26.71;46.64
58879;BME280;44660;42.664;23.266;2023-08-06T12:34:55;93401.81;;;26.61;44.64
58879;BME280;44660;42.664;23.266;2023-08-06T12:37:20;93410.41;;;26.63;46.02
58879;BME280;44660;42.664;23.266;2023-08-06T12:39:46;93420.59;;;26.70;45.14
58879;BME280;44660;42.664;23.266;2023-08-06T12:42:12;93397.63;;;26.71;45.12
58879;BME280;44660;42.664;23.266;2023-08-06T12:44:38;93411.44;;;26.82;47.07
58879;BME280;44660;42.664;23.266;2023-08-06T12:47:03;93393.47;;;26.77;45.36
58879;BME280;44660;42.664;23.266;2023-08-06T12:49:28;93402.16;;;26.90;45.58
58879;BME280;44660;42.664;23.266;2023-08-06T12:51:54;93403.34;;;26.93;44.44
58879;BME280;44660;42.664;23.266;2023-08-06T12:54:22;93398.69;;;26.93;44.98
58879;BME280;44660;42.664;23.266;2023-08-06T12:56:48;93409.25;;;26.98;45.81
58879;BME280;44660;42.664;23.266;2023-08-06T12:59:14;93407.72;;;27.04;44.69
58879;BME280;44660;42.664;23.266;2023-08-06T13:01:41;93399.19;;;27.06;45.66
58879;BME280;44660;42.664;23.266;2023-08-06T13:04:06;93391.38;;;27.04;43.78
58879;BME280;44660;42.664;23.266;2023-08-06T13:06:32;93392.59;;;27.11;43.82
58879;BME280;44660;42.664;23.266;2023-08-06T13:09:03;93396.16;;;27.15;44.19
58879;BME280;44660;42.664;23.266;2023-08-06T13:11:28;93395.31;;;27.11;44.58
58879;BME280;44660;42.664;23.266;2023-08-06T13:13:54;93403.66;;;27.25;43.70
58879;BME280;44660;42.664;23.266;2023-08-06T13:16:19;93370.69;;;27.00;44.00
58879;BME280;44660;42.664;23.266;2023-08-06T13:18:45;93400.09;;;27.21;43.76
58879;BME280;44660;42.664;23.266;2023-08-06T13:21:10;93404.38;;;27.22;43.76
58879;BME280;44660;42.664;23.266;2023-08-06T13:23:36;93403.16;;;27.16;43.27
58879;BME280;44660;42.664;23.266;2023-08-06T13:26:01;93388.59;;;26.97;44.50
58879;BME280;44660;42.664;23.266;2023-08-06T13:28:27;93415.59;;;27.10;43.15
58879;BME280;44660;42.664;23.266;2023-08-06T13:30:53;93401.41;;;26.93;42.63
58879;BME280;44660;42.664;23.266;2023-08-06T13:33:18;93425.31;;;27.11;42.60
58879;BME280;44660;42.664;23.266;2023-08-06T13:35:43;93410.81;;;26.99;42.71
58879;BME280;44660;42.664;23.266;2023-08-06T13:38:09;93416.28;;;27.03;43.72
58879;BME280;44660;42.664;23.266;2023-08-06T13:40:35;93410.75;;;26.92;43.03
58879;BME280;44660;42.664;23.266;2023-08-06T13:43:00;93416.19;;;26.92;43.46
58879;BME280;44660;42.664;23.266;2023-08-06T13:45:26;93416.94;;;26.89;42.84
58879;BME280;44660;42.664;23.266;2023-08-06T13:47:52;93407.53;;;26.83;43.16
58879;BME280;44660;42.664;23.266;2023-08-06T13:50:17;93425.56;;;26.95;44.01
58879;BME280;44660;42.664;23.266;2023-08-06T13:52:42;93422.03;;;26.94;43.30
58879;BME280;44660;42.664;23.266;2023-08-06T13:55:08;93395.88;;;26.86;41.99
58879;BME280;44660;42.664;23.266;2023-08-06T13:57:34;93406.16;;;27.00;42.29
58879;BME280;44660;42.664;23.266;2023-08-06T14:00:00;93374.34;;;26.73;42.46
58879;BME280;44660;42.664;23.266;2023-08-06T14:02:26;93386.16;;;26.88;42.48
58879;BME280;44660;42.664;23.266;2023-08-06T14:04:54;93396.06;;;27.04;42.89
58879;BME280;44660;42.664;23.266;2023-08-06T14:07:20;93396.91;;;27.12;43.24
58879;BME280;44660;42.664;23.266;2023-08-06T14:09:46;93405.53;;;27.17;43.53
58879;BME280;44660;42.664;23.266;2023-08-06T14:12:12;93391.88;;;27.14;42.01
58879;BME280;44660;42.664;23.266;2023-08-06T14:14:38;93380.97;;;27.14;40.91
58879;BME280;44660;42.664;23.266;2023-08-06T14:17:03;93397.03;;;27.26;41.84
58879;BME280;44660;42.664;23.266;2023-08-06T14:19:29;93369.69;;;27.19;41.62
58879;BME280;44660;42.664;23.266;2023-08-06T14:21:55;93383.78;;;27.28;42.08
58879;BME280;44660;42.664;23.266;2023-08-06T14:24:20;93404.97;;;27.42;41.52
58879;BME280;44660;42.664;23.266;2023-08-06T14:26:46;93387.50;;;27.47;41.66
58879;BME280;44660;42.664;23.266;2023-08-06T14:29:11;93392.22;;;27.53;40.15
58879;BME280;44660;42.664;23.266;2023-08-06T14:31:38;93385.63;;;27.58;40.05
58879;BME280;44660;42.664;23.266;2023-08-06T14:34:04;93395.84;;;27.72;38.99
58879;BME280;44660;42.664;23.266;2023-08-06T14:36:30;93253.69;;;26.80;39.31
58879;BME280;44660;42.664;23.266;2023-08-06T14:38:55;93406.84;;;27.83;39.07
58879;BME280;44660;42.664;23.266;2023-08-06T14:41:21;93358.34;;;27.58;38.84
58879;BME280;44660;42.664;23.266;2023-08-06T14:43:47;93372.00;;;27.65;36.98
58879;BME280;44660;42.664;23.266;2023-08-06T14:46:12;93388.88;;;27.82;36.45
58879;BME280;44660;42.664;23.266;2023-08-06T14:48:38;93380.31;;;27.80;36.43
58879;BME280;44660;42.664;23.266;2023-08-06T14:51:04;93388.88;;;27.82;36.87
58879;BME280;44660;42.664;23.266;2023-08-06T14:53:30;93399.06;;;27.85;36.34
58879;BME280;44660;42.664;23.266;2023-08-06T14:55:55;93370.13;;;27.77;36.41
58879;BME280;44660;42.664;23.266;2023-08-06T14:58:21;93393.66;;;27.99;36.83
58879;BME280;44660;42.664;23.266;2023-08-06T15:00:46;93385.09;;;27.97;35.84
58879;BME280;44660;42.664;23.266;2023-08-06T15:03:12;93376.91;;;27.97;36.92
58879;BME280;44660;42.664;23.266;2023-08-06T15:05:37;93385.19;;;28.12;36.27
58879;BME280;44660;42.664;23.266;2023-08-06T15:08:03;93371.13;;;28.10;36.30
58879;BME280;44660;42.664;23.266;2023-08-06T15:10:28;93384.44;;;28.22;35.67
58879;BME280;44660;42.664;23.266;2023-08-06T15:12:54;93370.34;;;28.09;34.31
58879;BME280;44660;42.664;23.266;2023-08-06T15:15:19;93346.06;;;27.97;35.31
58879;BME280;44660;42.664;23.266;2023-08-06T15:17:45;93383.69;;;28.25;35.27
58879;BME280;44660;42.664;23.266;2023-08-06T15:20:11;93362.56;;;28.18;34.97
58879;BME280;44660;42.664;23.266;2023-08-06T15:22:37;93368.09;;;28.29;35.39
58879;BME280;44660;42.664;23.266;2023-08-06T15:25:03;93376.72;;;28.39;34.91
58879;BME280;44660;42.664;23.266;2023-08-06T15:27:29;93381.44;;;28.42;35.45
58879;BME280;44660;42.664;23.266;2023-08-06T15:29:55;93375.19;;;28.45;36.00
58879;BME280;44660;42.664;23.266;2023-08-06T15:32:20;93378.31;;;28.54;36.88
58879;BME280;44660;42.664;23.266;2023-08-06T15:34:48;93368.97;;;28.55;36.83
58879;BME280;44660;42.664;23.266;2023-08-06T15:37:13;93370.59;;;28.67;36.95
58879;BME280;44660;42.664;23.266;2023-08-06T15:39:39;93371.34;;;28.64;36.95
58879;BME280;44660;42.664;23.266;2023-08-06T15:42:06;93368.16;;;28.44;37.03
58879;BME280;44660;42.664;23.266;2023-08-06T15:44:31;93373.59;;;28.44;37.61
58879;BME280;44660;42.664;23.266;2023-08-06T15:46:57;93374.41;;;28.44;37.57
58879;BME280;44660;42.664;23.266;2023-08-06T15:49:22;93350.91;;;28.29;36.03
58879;BME280;44660;42.664;23.266;2023-08-06T15:51:48;93393.91;;;28.46;37.35
58879;BME280;44660;42.664;23.266;2023-08-06T15:54:13;93399.00;;;28.48;33.35
58879;BME280;44660;42.664;23.266;2023-08-06T15:56:39;93393.06;;;28.31;32.51
58879;BME280;44660;42.664;23.266;2023-08-06T15:59:24;93372.72;;;28.18;32.61
58879;BME280;44660;42.664;23.266;2023-08-06T16:01:50;93404.75;;;28.25;33.02
58879;BME280;44660;42.664;23.266;2023-08-06T16:04:16;93414.09;;;28.16;32.68
58879;BME280;44660;42.664;23.266;2023-08-06T16:06:42;93419.53;;;28.13;33.06
58879;BME280;44660;42.664;23.266;2023-08-06T16:09:07;93415.50;;;27.99;33.27
58879;BME280;44660;42.664;23.266;2023-08-06T16:11:33;93432.28;;;27.98;33.15
58879;BME280;44660;42.664;23.266;2023-08-06T16:13:59;93426.78;;;27.91;33.35
58879;BME280;44660;42.664;23.266;2023-08-06T16:16:24;93397.75;;;27.64;33.74
58879;BME280;44660;42.664;23.266;2023-08-06T16:18:50;93423.94;;;27.73;33.32
58879;BME280;44660;42.664;23.266;2023-08-06T16:21:15;93425.44;;;27.66;33.93
58879;BME280;44660;42.664;23.266;2023-08-06T16:23:41;93413.66;;;27.55;34.02
58879;BME280;44660;42.664;23.266;2023-08-06T16:26:07;93426.09;;;27.52;34.00
58879;BME280;44660;42.664;23.266;2023-08-06T16:28:32;93435.44;;;27.48;34.68
58879;BME280;44660;42.664;23.266;2023-08-06T16:30:58;93428.66;;;27.34;35.07
58879;BME280;44660;42.664;23.266;2023-08-06T16:33:23;93395.25;;;27.00;35.31
58879;BME280;44660;42.664;23.266;2023-08-06T16:35:49;93450.00;;;27.21;35.36
58879;BME280;44660;42.664;23.266;2023-08-06T16:38:14;93434.22;;;27.04;35.54
58879;BME280;44660;42.664;23.266;2023-08-06T16:40:41;93451.38;;;27.04;36.09
58879;BME280;44660;42.664;23.266;2023-08-06T16:43:06;93459.50;;;26.97;36.24
58879;BME280;44660;42.664;23.266;2023-08-06T16:45:32;93446.31;;;26.72;36.67
58879;BME280;44660;42.664;23.266;2023-08-06T16:48:03;93449.38;;;26.67;36.85
58879;BME280;44660;42.664;23.266;2023-08-06T16:50:29;93424.09;;;26.36;37.08
58879;BME280;44660;42.664;23.266;2023-08-06T16:52:55;93458.88;;;26.47;37.27
58879;BME280;44660;42.664;23.266;2023-08-06T16:55:22;93467.38;;;26.42;37.30
58879;BME280;44660;42.664;23.266;2023-08-06T16:57:48;93455.03;;;26.21;37.80
58879;BME280;44660;42.664;23.266;2023-08-06T17:00:13;93419.09;;;25.85;38.39
58879;BME280;44660;42.664;23.266;2023-08-06T17:02:38;93471.59;;;26.08;38.22
58879;BME280;44660;42.664;23.266;2023-08-06T17:05:04;93458.59;;;25.98;37.97
58879;BME280;44660;42.664;23.266;2023-08-06T17:07:30;93473.34;;;25.97;38.17
58879;BME280;44660;42.664;23.266;2023-08-06T17:09:56;93437.78;;;25.59;38.45
58879;BME280;44660;42.664;23.266;2023-08-06T17:12:22;93482.44;;;25.82;39.08
58879;BME280;44660;42.664;23.266;2023-08-06T17:14:48;93487.06;;;25.78;39.44
58879;BME280;44660;42.664;23.266;2023-08-06T17:17:13;93481.88;;;25.69;39.52
58879;BME280;44660;42.664;23.266;2023-08-06T17:19:39;93493.66;;;25.77;40.17
58879;BME280;44660;42.664;23.266;2023-08-06T17:22:04;93471.94;;;25.57;40.27
58879;BME280;44660;42.664;23.266;2023-08-06T17:24:30;93497.00;;;25.66;40.68
58879;BME280;44660;42.664;23.266;2023-08-06T17:26:55;93492.69;;;25.65;40.48
58879;BME280;44660;42.664;23.266;2023-08-06T17:29:25;93498.44;;;25.60;40.89
58879;BME280;44660;42.664;23.266;2023-08-06T17:31:50;93448.81;;;25.24;40.93
58879;BME280;44660;42.664;23.266;2023-08-06T17:34:16;93508.28;;;25.45;40.51
58879;BME280;44660;42.664;23.266;2023-08-06T17:36:42;93496.41;;;25.34;40.80
58879;BME280;44660;42.664;23.266;2023-08-06T17:39:07;93513.19;;;25.36;40.88
58879;BME280;44660;42.664;23.266;2023-08-06T17:41:33;93506.38;;;25.26;41.09
58879;BME280;44660;42.664;23.266;2023-08-06T17:43:58;93501.53;;;25.16;40.76
58879;BME280;44660;42.664;23.266;2023-08-06T17:46:23;93506.16;;;25.15;41.09
58879;BME280;44660;42.664;23.266;2023-08-06T17:48:49;93520.25;;;25.21;41.14
58879;BME280;44660;42.664;23.266;2023-08-06T17:51:14;93501.13;;;24.94;41.20
58879;BME280;44660;42.664;23.266;2023-08-06T17:53:40;93533.16;;;25.04;41.10
58879;BME280;44660;42.664;23.266;2023-08-06T17:56:06;93522.94;;;24.98;41.58
58879;BME280;44660;42.664;23.266;2023-08-06T17:58:31;93534.16;;;24.96;41.13
58879;BME280;44660;42.664;23.266;2023-08-06T18:00:57;93540.91;;;24.83;41.50
58879;BME280;44660;42.664;23.266;2023-08-06T18:03:22;93509.53;;;24.50;41.71
58879;BME280;44660;42.664;23.266;2023-08-06T18:05:55;93532.88;;;24.54;41.93
58879;BME280;44660;42.664;23.266;2023-08-06T18:08:21;93554.00;;;24.61;41.77
58879;BME280;44660;42.664;23.266;2023-08-06T18:10:47;93546.91;;;24.56;41.57
58879;BME280;44660;42.664;23.266;2023-08-06T18:13:12;93471.84;;;23.93;41.05
58879;BME280;44660;42.664;23.266;2023-08-06T18:15:38;93516.47;;;24.11;41.00
58879;BME280;44660;42.664;23.266;2023-08-06T18:18:03;93594.09;;;24.48;40.92
58879;BME280;44660;42.664;23.266;2023-08-06T18:20:29;93489.25;;;23.76;40.82
58879;BME280;44660;42.664;23.266;2023-08-06T18:22:55;93541.72;;;23.96;40.62
58879;BME280;44660;42.664;23.266;2023-08-06T18:25:20;93504.75;;;23.75;40.82
58879;BME280;44660;42.664;23.266;2023-08-06T18:27:46;93510.59;;;23.61;41.40
58879;BME280;44660;42.664;23.266;2023-08-06T18:30:12;93498.19;;;23.44;40.79
58879;BME280;44660;42.664;23.266;2023-08-06T18:32:37;93469.16;;;23.29;41.27
58879;BME280;44660;42.664;23.266;2023-08-06T18:35:03;93512.09;;;23.43;41.53
58879;BME280;44660;42.664;23.266;2023-08-06T18:37:28;93468.25;;;23.25;41.61
58879;BME280;44660;42.664;23.266;2023-08-06T18:39:54;93471.44;;;23.14;41.90
58879;BME280;44660;42.664;23.266;2023-08-06T18:42:26;93611.31;;;24.04;42.41
58879;BME280;44660;42.664;23.266;2023-08-06T18:44:52;93620.94;;;24.02;42.28
58879;BME280;44660;42.664;23.266;2023-08-06T18:47:17;93526.97;;;23.33;42.86
58879;BME280;44660;42.664;23.266;2023-08-06T18:49:43;93492.25;;;23.10;43.72
58879;BME280;44660;42.664;23.266;2023-08-06T18:52:08;93506.03;;;23.18;43.75
58879;BME280;44660;42.664;23.266;2023-08-06T18:54:34;93604.09;;;23.80;43.85
58879;BME280;44660;42.664;23.266;2023-08-06T18:56:59;93474.66;;;22.88;44.08
58879;BME280;44660;42.664;23.266;2023-08-06T18:59:25;93506.78;;;23.02;44.30
58879;BME280;44660;42.664;23.266;2023-08-06T19:01:51;93571.50;;;23.48;44.14
58879;BME280;44660;42.664;23.266;2023-08-06T19:04:16;93611.53;;;23.67;44.25
58879;BME280;44660;42.664;23.266;2023-08-06T19:06:42;93473.03;;;22.71;44.73
58879;BME280;44660;42.664;23.266;2023-08-06T19:09:07;93643.88;;;23.60;44.36
58879;BME280;44660;42.664;23.266;2023-08-06T19:11:33;93572.09;;;23.13;44.73
58879;BME280;44660;42.664;23.266;2023-08-06T19:13:58;93500.09;;;22.55;44.90
58879;BME280;44660;42.664;23.266;2023-08-06T19:16:25;93540.25;;;22.81;44.84
58879;BME280;44660;42.664;23.266;2023-08-06T19:18:51;93621.22;;;23.24;44.53
58879;BME280;44660;42.664;23.266;2023-08-06T19:21:16;93621.03;;;23.17;44.53
58879;BME280;44660;42.664;23.266;2023-08-06T19:23:42;93646.97;;;23.30;44.49
58879;BME280;44660;42.664;23.266;2023-08-06T19:26:08;93601.94;;;23.00;44.32
58879;BME280;44660;42.664;23.266;2023-08-06T19:28:34;93626.69;;;22.99;44.83
58879;BME280;44660;42.664;23.266;2023-08-06T19:30:59;93648.38;;;22.99;44.80
58879;BME280;44660;42.664;23.266;2023-08-06T19:33:25;93690.25;;;23.14;44.71
58879;BME280;44660;42.664;23.266;2023-08-06T19:35:52;93746.63;;;22.96;45.34
58879;BME280;44660;42.664;23.266;2023-08-06T19:38:22;93790.88;;;22.75;47.53
58879;BME280;44660;42.664;23.266;2023-08-06T19:40:49;93798.19;;;22.38;48.40
58879;BME280;44660;42.664;23.266;2023-08-06T19:43:15;93786.38;;;21.88;48.98
58879;BME280;44660;42.664;23.266;2023-08-06T19:45:47;93808.28;;;21.52;50.08
58879;BME280;44660;42.664;23.266;2023-08-06T19:48:13;93852.84;;;21.46;50.18
58879;BME280;44660;42.664;23.266;2023-08-06T19:50:39;93840.78;;;21.14;50.68
58879;BME280;44660;42.664;23.266;2023-08-06T19:53:04;93868.38;;;20.98;51.02
58879;BME280;44660;42.664;23.266;2023-08-06T19:55:30;93843.72;;;20.52;51.22
58879;BME280;44660;42.664;23.266;2023-08-06T19:57:56;93858.03;;;20.44;52.30
58879;BME280;44660;42.664;23.266;2023-08-06T20:00:21;93885.03;;;20.44;52.64
58879;BME280;44660;42.664;23.266;2023-08-06T20:02:47;93870.16;;;20.29;52.99
58879;BME280;44660;42.664;23.266;2023-08-06T20:05:12;93879.97;;;20.25;53.37
58879;BME280;44660;42.664;23.266;2023-08-06T20:07:38;93881.13;;;19.98;53.54
58879;BME280;44660;42.664;23.266;2023-08-06T20:10:04;93884.13;;;19.79;54.22
58879;BME280;44660;42.664;23.266;2023-08-06T20:12:30;93888.25;;;19.76;54.97
58879;BME280;44660;42.664;23.266;2023-08-06T20:14:55;93882.81;;;19.58;55.58
58879;BME280;44660;42.664;23.266;2023-08-06T20:17:20;93893.91;;;19.48;55.54
58879;BME280;44660;42.664;23.266;2023-08-06T20:19:46;93902.94;;;19.52;56.16
58879;BME280;44660;42.664;23.266;2023-08-06T20:22:11;93907.56;;;19.52;56.33
58879;BME280;44660;42.664;23.266;2023-08-06T20:24:37;93895.47;;;19.32;57.06
58879;BME280;44660;42.664;23.266;2023-08-06T20:27:03;93909.44;;;19.34;57.00
58879;BME280;44660;42.664;23.266;2023-08-06T20:29:28;93918.50;;;19.47;56.78
58879;BME280;44660;42.664;23.266;2023-08-06T20:31:54;93917.38;;;19.56;56.69
58879;BME280;44660;42.664;23.266;2023-08-06T20:34:19;93919.81;;;19.67;56.31
58879;BME280;44660;42.664;23.266;2023-08-06T20:36:45;93919.78;;;19.75;56.28
58879;BME280;44660;42.664;23.266;2023-08-06T20:39:10;93922.66;;;19.79;56.26
58879;BME280;44660;42.664;23.266;2023-08-06T20:41:36;93881.41;;;19.61;56.25
58879;BME280;44660;42.664;23.266;2023-08-06T20:44:02;93906.97;;;19.81;55.67
58879;BME280;44660;42.664;23.266;2023-08-06T20:46:28;93928.75;;;20.02;55.70
58879;BME280;44660;42.664;23.266;2023-08-06T20:48:53;93934.59;;;20.13;55.13
58879;BME280;44660;42.664;23.266;2023-08-06T20:51:18;93918.25;;;20.10;55.33
58879;BME280;44660;42.664;23.266;2023-08-06T20:53:44;93927.94;;;20.19;54.93
58879;BME280;44660;42.664;23.266;2023-08-06T20:56:09;93932.53;;;20.28;54.73
58879;BME280;44660;42.664;23.266;2023-08-06T20:58:35;93939.22;;;20.30;54.23